Time;durP1;ratioP1;P1;durP2;ratioP2;P2;SDS_P1;SDS_P2;PMS_P1;PMS_P2;Temp;Humidity;BMP_temperature;BMP_pressure;BME280_temperature;BME280_humidity;BME280_pressure;Samples;Min_cycle;Max_cycle;Signal;HPM_P1;HPM_P2
2024/01/27 00:01:41;;;;;;;;;;;;;;;5.72;62.16;99484.72;5006473;28;20322;-75
2024/01/27 00:04:32;;;;;;;;;;;;;;;5.67;62.35;99486.50;5006747;28;20290;-75
2024/01/27 00:07:20;;;;;;;;;;;;;;;5.55;62.82;99480.34;5010893;28;20685;-75
2024/01/27 00:10:08;;;;;;;;;;;;;;;5.47;62.64;99482.34;5010610;28;20018;-75
2024/01/27 00:12:57;;;;;;;;;;;;;;;5.45;62.83;99489.03;4995281;28;19925;-74
2024/01/27 00:15:45;;;;;;;;;;;;;;;5.37;63.25;99494.78;5006907;28;20582;-75
2024/01/27 00:18:39;;;;;;;;;;;;;;;5.32;62.97;99483.91;5010645;28;19929;-74
2024/01/27 00:21:28;;;;;;;;;;;;;;;5.34;63.22;99482.63;5007383;28;19926;-74
2024/01/27 00:24:16;;;;;;;;;;;;;;;5.24;63.36;99490.50;5011385;28;19932;-74
2024/01/27 00:27:04;;;;;;;;;;;;;;;5.34;63.41;99497.97;5003144;28;20333;-76
2024/01/27 00:29:53;;;;;;;;;;;;;;;5.31;63.31;99495.75;5003331;28;19932;-75
2024/01/27 00:32:41;;;;;;;;;;;;;;;5.11;63.72;99496.94;5008904;28;19926;-75
2024/01/27 00:35:29;;;;;;;;;;;;;;;5.26;63.06;99497.28;5009746;28;19949;-74
2024/01/27 00:38:19;;;;;;;;;;;;;;;5.26;63.35;99502.66;5008955;28;19936;-75
2024/01/27 00:41:07;;;;;;;;;;;;;;;5.23;63.46;99505.84;5004061;28;19980;-75
2024/01/27 00:43:55;;;;;;;;;;;;;;;5.14;63.60;99509.97;5009725;28;19925;-74
2024/01/27 00:46:43;;;;;;;;;;;;;;;5.15;63.48;99511.59;5012227;28;20032;-75
2024/01/27 00:49:31;;;;;;;;;;;;;;;5.10;63.52;99524.94;5016045;28;19936;-75
2024/01/27 00:52:19;;;;;;;;;;;;;;;5.13;63.50;99529.06;5013863;28;19933;-75
2024/01/27 00:55:08;;;;;;;;;;;;;;;4.95;64.46;99532.69;5003154;28;19996;-75
2024/01/27 00:57:56;;;;;;;;;;;;;;;5.04;63.89;99542.06;5012151;28;19963;-74
2024/01/27 01:00:44;;;;;;;;;;;;;;;5.07;64.36;99549.69;5007702;28;20486;-75
2024/01/27 01:03:33;;;;;;;;;;;;;;;4.98;63.99;99559.16;5009230;28;19925;-75
2024/01/27 01:06:21;;;;;;;;;;;;;;;5.01;64.02;99558.69;4999984;28;19925;-75
2024/01/27 01:09:09;;;;;;;;;;;;;;;4.87;63.62;99550.03;5023942;28;19929;-75
2024/01/27 01:11:59;;;;;;;;;;;;;;;4.84;64.15;99549.66;5007977;28;19972;-74
2024/01/27 01:14:47;;;;;;;;;;;;;;;4.84;64.28;99553.16;5012912;28;20512;-75
2024/01/27 01:17:35;;;;;;;;;;;;;;;4.90;63.83;99562.19;5015352;28;19971;-75
2024/01/27 01:20:25;;;;;;;;;;;;;;;4.92;63.90;99560.09;5013923;28;19980;-75
2024/01/27 01:23:13;;;;;;;;;;;;;;;4.89;63.88;99566.75;5011827;28;20084;-76
2024/01/27 01:26:02;;;;;;;;;;;;;;;4.80;64.14;99564.66;5008936;28;19925;-75
2024/01/27 01:28:52;;;;;;;;;;;;;;;4.68;64.94;99560.06;5016551;28;19955;-75
2024/01/27 01:31:42;;;;;;;;;;;;;;;4.78;64.27;99558.69;5009934;28;19933;-75
2024/01/27 01:34:30;;;;;;;;;;;;;;;4.76;63.84;99566.19;5010221;28;19929;-74
2024/01/27 01:37:18;;;;;;;;;;;;;;;4.87;64.25;99562.66;5002772;28;20032;-75
2024/01/27 01:40:07;;;;;;;;;;;;;;;4.56;65.02;99564.63;4991288;28;19933;-74
2024/01/27 01:42:55;;;;;;;;;;;;;;;4.78;64.94;99569.44;5005675;28;19926;-75
2024/01/27 01:45:44;;;;;;;;;;;;;;;4.79;64.34;99571.91;5014188;28;19965;-75
2024/01/27 01:48:32;;;;;;;;;;;;;;;4.76;64.52;99577.75;5010463;28;20391;-75
2024/01/27 01:51:20;;;;;;;;;;;;;;;4.73;63.90;99576.34;5000464;28;19925;-75
2024/01/27 01:54:09;;;;;;;;;;;;;;;4.69;64.68;99569.00;5009351;28;20060;-75
2024/01/27 01:56:58;;;;;;;;;;;;;;;4.68;64.52;99587.00;5010041;28;20082;-75
2024/01/27 01:59:46;;;;;;;;;;;;;;;4.65;64.74;99584.78;5001245;28;19988;-75
2024/01/27 02:02:35;;;;;;;;;;;;;;;4.73;64.17;99589.00;5005139;28;20506;-75
2024/01/27 02:05:23;;;;;;;;;;;;;;;4.57;64.52;99601.25;4989881;28;19930;-75
2024/01/27 02:08:13;;;;;;;;;;;;;;;4.61;65.01;99590.84;5003362;28;20000;-75
2024/01/27 02:11:02;;;;;;;;;;;;;;;4.68;63.98;99580.78;5006604;28;20405;-74
2024/01/27 02:13:50;;;;;;;;;;;;;;;4.60;64.51;99584.66;4997729;28;19940;-74
2024/01/27 02:16:38;;;;;;;;;;;;;;;4.60;65.24;99589.22;5003972;28;20370;-74
2024/01/27 02:19:27;;;;;;;;;;;;;;;4.70;64.31;99594.84;5007081;28;19925;-75
2024/01/27 02:22:16;;;;;;;;;;;;;;;4.55;64.19;99591.78;5010559;28;19926;-75
2024/01/27 02:25:05;;;;;;;;;;;;;;;4.63;63.94;99591.44;5003095;28;19953;-75
2024/01/27 02:27:54;;;;;;;;;;;;;;;4.65;64.01;99602.81;5005303;28;20301;-74
2024/01/27 02:30:42;;;;;;;;;;;;;;;4.56;64.09;99599.63;5011337;28;19925;-75
2024/01/27 02:33:30;;;;;;;;;;;;;;;4.55;64.29;99597.97;5008798;28;20345;-75
2024/01/27 02:36:18;;;;;;;;;;;;;;;4.53;64.28;99608.16;5011946;28;19940;-75
2024/01/27 02:39:06;;;;;;;;;;;;;;;4.50;64.86;99614.00;5018069;28;19925;-76
2024/01/27 02:41:57;;;;;;;;;;;;;;;4.47;63.83;99617.13;5014408;28;20300;-77
2024/01/27 02:44:45;;;;;;;;;;;;;;;4.44;64.35;99615.72;4991883;28;19937;-75
2024/01/27 02:47:33;;;;;;;;;;;;;;;4.45;64.16;99624.63;5017416;28;19933;-75
2024/01/27 02:50:21;;;;;;;;;;;;;;;4.33;64.45;99631.84;5009289;28;19940;-74
2024/01/27 02:53:09;;;;;;;;;;;;;;;4.45;64.10;99627.31;5017155;28;20413;-73
2024/01/27 02:55:57;;;;;;;;;;;;;;;4.34;64.42;99639.69;5006999;28;20016;-73
2024/01/27 02:58:49;;;;;;;;;;;;;;;4.27;64.35;99633.59;5003141;28;20388;-72
2024/01/27 03:01:38;;;;;;;;;;;;;;;4.30;64.84;99645.75;5009837;28;20365;-73
2024/01/27 03:04:25;;;;;;;;;;;;;;;4.26;64.77;99639.16;5009776;28;20011;-73
2024/01/27 03:07:14;;;;;;;;;;;;;;;4.26;64.71;99641.84;5010850;28;19994;-73
2024/01/27 03:10:02;;;;;;;;;;;;;;;4.22;65.26;99654.16;5010941;28;20290;-74
2024/01/27 03:12:50;;;;;;;;;;;;;;;4.13;65.23;99649.06;4995928;28;20393;-74
2024/01/27 03:15:42;;;;;;;;;;;;;;;4.13;65.18;99650.94;4997486;28;19933;-73
2024/01/27 03:18:31;;;;;;;;;;;;;;;4.05;65.09;99652.09;5010066;28;19929;-73
2024/01/27 03:21:19;;;;;;;;;;;;;;;4.14;64.98;99650.69;4995942;28;19925;-72
2024/01/27 03:24:07;;;;;;;;;;;;;;;4.13;65.07;99653.63;5007198;28;19936;-73
2024/01/27 03:26:56;;;;;;;;;;;;;;;4.16;64.58;99658.56;5008493;28;19967;-72
2024/01/27 03:29:43;;;;;;;;;;;;;;;4.26;64.26;99653.47;5004389;28;19973;-73
2024/01/27 03:32:33;;;;;;;;;;;;;;;4.22;64.58;99664.91;5011255;28;19933;-73
2024/01/27 03:35:21;;;;;;;;;;;;;;;4.07;64.71;99660.72;5007593;28;20370;-74
2024/01/27 03:38:09;;;;;;;;;;;;;;;4.00;65.04;99665.38;5013201;28;19925;-73
2024/01/27 03:40:58;;;;;;;;;;;;;;;3.88;65.45;99664.47;5002651;28;19933;-74
2024/01/27 03:43:46;;;;;;;;;;;;;;;3.96;65.43;99666.88;5017080;28;19977;-74
2024/01/27 03:46:34;;;;;;;;;;;;;;;3.89;65.38;99668.84;5005829;28;19933;-77
2024/01/27 03:49:24;;;;;;;;;;;;;;;4.02;64.85;99668.66;5011413;28;19929;-74
2024/01/27 03:52:12;;;;;;;;;;;;;;;3.99;64.74;99671.78;5013848;28;20397;-73
2024/01/27 03:55:00;;;;;;;;;;;;;;;3.98;64.28;99672.03;5008971;28;20286;-72
2024/01/27 03:57:48;;;;;;;;;;;;;;;3.88;65.20;99677.91;5004208;28;20003;-73
2024/01/27 04:00:36;;;;;;;;;;;;;;;3.81;65.47;99693.31;5011736;28;20353;-74
2024/01/27 04:03:24;;;;;;;;;;;;;;;3.81;65.35;99686.06;5006402;28;19933;-74
2024/01/27 04:06:13;;;;;;;;;;;;;;;3.74;65.75;99679.13;5018418;28;19952;-73
2024/01/27 04:09:02;;;;;;;;;;;;;;;3.80;65.72;99683.59;4987385;28;19930;-73
2024/01/27 04:11:51;;;;;;;;;;;;;;;3.74;65.96;99698.75;5018279;28;20389;-73
2024/01/27 04:14:40;;;;;;;;;;;;;;;3.72;65.64;99694.63;5010911;28;19925;-73
2024/01/27 04:17:28;;;;;;;;;;;;;;;3.58;66.02;99704.72;5021452;28;19925;-73
2024/01/27 04:20:16;;;;;;;;;;;;;;;3.66;65.72;99702.56;5016734;28;19932;-72
2024/01/27 04:23:05;;;;;;;;;;;;;;;3.68;66.08;99705.84;5011836;28;19925;-73
2024/01/27 04:25:53;;;;;;;;;;;;;;;3.69;65.79;99701.28;5013032;28;19925;-73
2024/01/27 04:28:41;;;;;;;;;;;;;;;3.67;65.69;99706.91;5014098;28;20443;-74
2024/01/27 04:31:31;;;;;;;;;;;;;;;3.65;65.28;99706.28;5014421;28;20532;-73
2024/01/27 04:34:19;;;;;;;;;;;;;;;3.66;65.64;99707.94;5013352;28;19926;-73
2024/01/27 04:37:07;;;;;;;;;;;;;;;3.63;65.56;99710.25;5007220;28;20389;-74
2024/01/27 04:39:57;;;;;;;;;;;;;;;3.52;66.38;99713.69;5002654;28;20016;-74
2024/01/27 04:42:45;;;;;;;;;;;;;;;3.60;65.58;99716.88;5008509;28;19930;-73
2024/01/27 04:45:34;;;;;;;;;;;;;;;3.73;65.49;99724.00;5012259;28;19961;-73
2024/01/27 04:48:22;;;;;;;;;;;;;;;3.51;66.53;99720.88;5009066;28;20072;-74
2024/01/27 04:51:11;;;;;;;;;;;;;;;3.70;65.77;99729.81;5021813;28;20454;-73
2024/01/27 04:53:59;;;;;;;;;;;;;;;3.76;65.46;99730.78;5012031;28;19930;-74
2024/01/27 04:56:49;;;;;;;;;;;;;;;3.70;65.88;99734.38;5011115;28;20012;-74
2024/01/27 04:59:38;;;;;;;;;;;;;;;3.40;66.77;99729.66;5014435;28;19929;-73
2024/01/27 05:02:26;;;;;;;;;;;;;;;3.54;66.56;99730.38;5011318;28;20336;-74
2024/01/27 05:05:14;;;;;;;;;;;;;;;3.44;66.52;99730.88;5005894;28;20407;-73
2024/01/27 05:08:02;;;;;;;;;;;;;;;3.47;66.68;99738.50;5015424;28;20396;-72
2024/01/27 05:10:51;;;;;;;;;;;;;;;3.68;66.00;99737.28;5007663;28;19983;-74
2024/01/27 05:13:42;;;;;;;;;;;;;;;3.57;65.94;99738.00;5005069;28;19933;-74
2024/01/27 05:16:30;;;;;;;;;;;;;;;3.67;65.82;99741.00;5010118;28;19932;-74
2024/01/27 05:19:18;;;;;;;;;;;;;;;3.72;65.72;99735.78;5006091;28;19925;-75
2024/01/27 05:22:06;;;;;;;;;;;;;;;3.64;65.52;99736.91;5005195;28;19925;-75
2024/01/27 05:24:54;;;;;;;;;;;;;;;3.65;65.83;99741.22;5007000;28;19929;-76
2024/01/27 05:27:42;;;;;;;;;;;;;;;3.75;65.37;99754.16;5012951;28;19984;-75
2024/01/27 05:30:32;;;;;;;;;;;;;;;3.73;65.71;99748.19;5025594;28;19925;-77
2024/01/27 05:33:20;;;;;;;;;;;;;;;3.85;64.93;99751.78;5024997;28;20289;-75
2024/01/27 05:36:08;;;;;;;;;;;;;;;3.79;65.68;99754.56;5013785;28;19937;-74
2024/01/27 05:38:56;;;;;;;;;;;;;;;3.92;64.50;99754.41;5016201;28;20022;-74
2024/01/27 05:41:44;;;;;;;;;;;;;;;3.68;65.58;99758.78;5006860;28;20080;-73
2024/01/27 05:44:32;;;;;;;;;;;;;;;3.87;64.99;99755.06;5012453;28;19932;-75
2024/01/27 05:47:22;;;;;;;;;;;;;;;3.76;64.76;99755.81;5013494;28;19929;-74
2024/01/27 05:50:11;;;;;;;;;;;;;;;3.76;65.30;99766.56;5016025;28;20408;-74
2024/01/27 05:52:59;;;;;;;;;;;;;;;3.66;64.97;99761.69;5007477;28;19925;-75
2024/01/27 05:55:47;;;;;;;;;;;;;;;3.49;65.33;99757.91;5017138;28;19925;-74
2024/01/27 05:58:35;;;;;;;;;;;;;;;3.83;64.38;99771.88;4998154;28;19936;-75
2024/01/27 06:01:23;;;;;;;;;;;;;;;3.80;63.99;99769.63;5009501;28;19933;-76
2024/01/27 06:04:13;;;;;;;;;;;;;;;3.78;64.15;99763.63;5000751;28;19973;-74
2024/01/27 06:07:01;;;;;;;;;;;;;;;3.51;65.04;99763.88;5003303;28;20410;-76
2024/01/27 06:09:49;;;;;;;;;;;;;;;3.74;64.20;99773.22;5005925;28;20080;-75
2024/01/27 06:12:38;;;;;;;;;;;;;;;3.54;65.00;99779.56;5008179;28;19926;-76
2024/01/27 06:15:26;;;;;;;;;;;;;;;3.75;63.60;99780.22;5008536;28;19925;-76
2024/01/27 06:18:15;;;;;;;;;;;;;;;3.76;64.10;99781.88;5014415;28;19936;-76
2024/01/27 06:21:06;;;;;;;;;;;;;;;3.65;64.13;99775.34;5005802;28;19926;-76
2024/01/27 06:23:55;;;;;;;;;;;;;;;3.75;63.81;99774.84;5010290;28;19929;-76
2024/01/27 06:26:43;;;;;;;;;;;;;;;3.87;63.79;99776.59;5013435;28;19909;-75
2024/01/27 06:29:31;;;;;;;;;;;;;;;3.89;63.65;99781.75;5011282;28;20301;-76
2024/01/27 06:32:19;;;;;;;;;;;;;;;3.85;63.15;99780.56;5019489;28;19956;-77
2024/01/27 06:35:11;;;;;;;;;;;;;;;3.81;63.61;99784.72;5017447;28;20543;-78
2024/01/27 06:38:00;;;;;;;;;;;;;;;3.72;63.92;99786.03;5012469;28;19932;-78
2024/01/27 06:40:48;;;;;;;;;;;;;;;3.70;63.97;99788.94;5013474;28;19933;-81
2024/01/27 06:43:37;;;;;;;;;;;;;;;3.64;64.01;99800.59;5087555;23;19924;-56
2024/01/27 06:46:25;;;;;;;;;;;;;;;3.60;63.89;99794.81;5072384;28;20437;-56
2024/01/27 06:49:13;;;;;;;;;;;;;;;3.47;64.25;99800.31;5077081;28;19933;-56
2024/01/27 06:52:05;;;;;;;;;;;;;;;3.49;64.63;99803.59;5069238;28;19924;-56
2024/01/27 06:54:54;;;;;;;;;;;;;;;3.79;63.35;99802.94;5073654;28;19928;-56
2024/01/27 06:57:42;;;;;;;;;;;;;;;3.55;64.01;99799.22;5067938;28;19999;-56
2024/01/27 07:00:31;;;;;;;;;;;;;;;3.37;64.62;99800.81;5080539;28;20005;-56
2024/01/27 07:03:19;;;;;;;;;;;;;;;3.41;64.16;99801.19;5079679;28;20381;-56
2024/01/27 07:06:08;;;;;;;;;;;;;;;3.71;63.85;99801.34;5076917;28;19971;-55
2024/01/27 07:08:56;;;;;;;;;;;;;;;3.55;63.68;99802.72;5066889;28;19969;-55
2024/01/27 07:11:45;;;;;;;;;;;;;;;3.29;64.38;99811.78;5066876;28;19931;-56
2024/01/27 07:14:33;;;;;;;;;;;;;;;3.40;64.40;99816.47;5070739;28;19925;-56
2024/01/27 07:17:21;;;;;;;;;;;;;;;3.43;64.12;99817.91;5073409;28;20025;-55
2024/01/27 07:20:10;;;;;;;;;;;;;;;3.51;63.98;99812.25;5068332;28;19955;-55
2024/01/27 07:22:58;;;;;;;;;;;;;;;3.52;63.81;99818.47;5068929;28;19925;-55
2024/01/27 07:25:46;;;;;;;;;;;;;;;3.50;64.28;99826.72;5068628;28;19924;-56
2024/01/27 07:28:35;;;;;;;;;;;;;;;3.62;63.94;99838.44;5063285;28;20409;-55
2024/01/27 07:31:26;;;;;;;;;;;;;;;3.55;64.24;99843.03;5068349;28;20324;-55
2024/01/27 07:34:14;;;;;;;;;;;;;;;3.64;64.01;99849.78;5064570;28;19932;-57
2024/01/27 07:37:03;;;;;;;;;;;;;;;3.61;64.37;99849.41;5063280;28;19932;-55
2024/01/27 07:39:51;;;;;;;;;;;;;;;3.73;63.60;99853.03;5066480;28;20417;-56
2024/01/27 07:42:40;;;;;;;;;;;;;;;3.61;64.13;99849.41;5064692;28;19924;-56
2024/01/27 07:45:29;;;;;;;;;;;;;;;3.56;64.24;99850.03;5070498;28;19931;-57
2024/01/27 07:48:17;;;;;;;;;;;;;;;3.51;64.27;99841.81;5067886;28;20019;-56
2024/01/27 07:51:05;;;;;;;;;;;;;;;3.47;64.61;99851.38;5059906;28;19931;-57
2024/01/27 07:53:53;;;;;;;;;;;;;;;3.49;64.08;99861.91;5071439;28;20302;-55
2024/01/27 07:56:42;;;;;;;;;;;;;;;3.57;64.48;99862.47;5072871;28;20370;-55
2024/01/27 07:59:30;;;;;;;;;;;;;;;3.51;64.28;99865.19;5064525;28;20377;-55
2024/01/27 08:02:19;;;;;;;;;;;;;;;3.49;63.88;99864.59;5083633;28;20302;-56
2024/01/27 08:05:08;;;;;;;;;;;;;;;3.31;64.39;99871.53;5078510;28;19931;-56
2024/01/27 08:07:56;;;;;;;;;;;;;;;3.10;65.85;99869.97;5072865;28;20077;-56
2024/01/27 08:10:47;;;;;;;;;;;;;;;3.29;65.82;99867.38;5073529;28;19936;-56
2024/01/27 08:13:35;;;;;;;;;;;;;;;3.23;65.79;99870.94;5067233;28;19925;-56
2024/01/27 08:16:24;;;;;;;;;;;;;;;3.35;65.64;99874.56;5073324;28;20397;-59
2024/01/27 08:19:13;;;;;;;;;;;;;;;3.27;66.11;99869.47;5070166;28;20295;-57
2024/01/27 08:22:01;;;;;;;;;;;;;;;3.34;66.06;99865.69;5071416;28;20015;-56
2024/01/27 08:24:49;;;;;;;;;;;;;;;3.52;65.64;99867.66;5074095;28;19931;-56
2024/01/27 08:27:38;;;;;;;;;;;;;;;3.58;65.22;99866.78;5078287;28;19925;-55
2024/01/27 08:30:26;;;;;;;;;;;;;;;3.61;64.93;99866.34;5077341;28;19924;-55
2024/01/27 08:33:14;;;;;;;;;;;;;;;3.76;63.63;99870.59;5078875;28;20550;-56
2024/01/27 08:36:04;;;;;;;;;;;;;;;3.74;63.86;99872.69;5073989;28;19924;-56
2024/01/27 08:38:52;;;;;;;;;;;;;;;3.64;63.71;99871.28;5072965;28;19924;-56
2024/01/27 08:41:40;;;;;;;;;;;;;;;3.78;63.41;99877.41;5068358;28;20417;-55
2024/01/27 08:44:28;;;;;;;;;;;;;;;3.84;63.85;99876.53;5076152;28;19930;-55
2024/01/27 08:47:18;;;;;;;;;;;;;;;3.75;63.82;99877.00;5079493;28;20024;-56
2024/01/27 08:50:07;;;;;;;;;;;;;;;3.93;63.17;99880.56;5071196;28;19928;-56
2024/01/27 08:52:56;;;;;;;;;;;;;;;3.86;63.46;99873.59;5071721;28;19933;-56
2024/01/27 08:55:44;;;;;;;;;;;;;;;4.11;62.86;99884.38;5071044;28;20011;-55
2024/01/27 08:58:32;;;;;;;;;;;;;;;4.07;62.48;99886.66;5068624;28;20426;-55
2024/01/27 09:01:20;;;;;;;;;;;;;;;3.94;62.46;99886.75;5064132;28;20011;-55
2024/01/27 09:04:09;;;;;;;;;;;;;;;4.03;62.47;99885.44;5079317;28;19924;-62
2024/01/27 09:06:57;;;;;;;;;;;;;;;3.89;62.74;99895.50;5063774;28;19924;-55
2024/01/27 09:09:46;;;;;;;;;;;;;;;3.90;62.75;99888.28;5065975;28;20049;-57
2024/01/27 09:12:34;;;;;;;;;;;;;;;4.08;61.87;99903.63;5070466;28;19924;-57
2024/01/27 09:15:22;;;;;;;;;;;;;;;3.83;63.10;99900.91;5073457;28;19931;-56
2024/01/27 09:18:10;;;;;;;;;;;;;;;4.14;62.93;99895.50;5080042;28;19931;-57
2024/01/27 09:20:59;;;;;;;;;;;;;;;4.05;62.69;99888.75;5075436;28;19931;-57
2024/01/27 09:23:47;;;;;;;;;;;;;;;4.24;62.09;99884.22;5071477;28;20551;-55
2024/01/27 09:26:37;;;;;;;;;;;;;;;4.37;62.21;99894.06;5070516;28;20010;-55
2024/01/27 09:29:25;;;;;;;;;;;;;;;4.50;61.23;99901.16;5072338;28;19985;-56
2024/01/27 09:32:13;;;;;;;;;;;;;;;4.62;60.71;99910.13;5068201;28;19924;-55
2024/01/27 09:35:02;;;;;;;;;;;;;;;4.56;60.89;99917.25;5064877;28;19970;-56
2024/01/27 09:37:50;;;;;;;;;;;;;;;4.77;60.39;99915.16;5068468;28;20403;-55
2024/01/27 09:40:39;;;;;;;;;;;;;;;4.57;61.28;99912.69;5069754;28;19935;-57
2024/01/27 09:43:28;;;;;;;;;;;;;;;4.64;61.58;99908.06;5071330;28;19924;-59
2024/01/27 09:46:16;;;;;;;;;;;;;;;4.64;61.18;99913.44;5072708;28;19925;-56
2024/01/27 09:49:04;;;;;;;;;;;;;;;4.86;60.75;99916.53;5073850;28;19973;-55
2024/01/27 09:51:53;;;;;;;;;;;;;;;4.83;60.95;99911.56;5072637;28;19929;-56
2024/01/27 09:54:41;;;;;;;;;;;;;;;4.82;60.34;99921.53;5073241;28;20405;-56
2024/01/27 09:57:29;;;;;;;;;;;;;;;4.96;60.22;99916.81;5073708;28;20401;-56
2024/01/27 10:00:19;;;;;;;;;;;;;;;4.95;60.50;99916.00;5049171;28;20381;-56
2024/01/27 10:03:08;;;;;;;;;;;;;;;5.11;60.20;99925.31;5075567;28;19933;-59
2024/01/27 10:05:56;;;;;;;;;;;;;;;5.21;59.60;99920.22;5070218;28;19935;-55
2024/01/27 10:08:46;;;;;;;;;;;;;;;5.49;58.83;99922.34;5060170;28;19939;-55
2024/01/27 10:11:34;;;;;;;;;;;;;;;5.45;58.94;99923.03;5061738;28;20266;-55
2024/01/27 10:14:23;;;;;;;;;;;;;;;5.28;58.88;99903.97;5074136;28;19931;-56
2024/01/27 10:17:13;;;;;;;;;;;;;;;5.49;58.37;99918.81;5068066;28;20057;-56
2024/01/27 10:20:02;;;;;;;;;;;;;;;5.46;57.78;99916.56;5074031;28;19931;-56
2024/01/27 10:22:57;;;;;;;;;;;;;;;5.53;58.60;99912.72;5067810;28;19931;-57
2024/01/27 10:25:45;;;;;;;;;;;;;;;5.55;58.20;99920.59;5061236;28;19925;-55
2024/01/27 10:28:33;;;;;;;;;;;;;;;5.59;58.21;99910.97;5084182;28;20006;-56
2024/01/27 10:31:23;;;;;;;;;;;;;;;5.53;58.68;99917.28;5073244;28;20023;-56
2024/01/27 10:34:15;;;;;;;;;;;;;;;5.70;57.90;99912.06;5070269;28;19944;-58
2024/01/27 10:37:03;;;;;;;;;;;;;;;5.61;57.93;99914.28;5064421;28;19933;-56
2024/01/27 10:40:00;;;;;;;;;;;;;;;5.58;57.66;99912.03;5078799;28;19931;-55
2024/01/27 10:42:48;;;;;;;;;;;;;;;5.60;57.64;99901.03;5064214;28;19933;-55
2024/01/27 10:45:38;;;;;;;;;;;;;;;5.48;58.00;99907.19;5076932;28;19925;-57
2024/01/27 10:48:26;;;;;;;;;;;;;;;5.81;57.52;99913.19;5069657;28;20278;-56
2024/01/27 10:51:15;;;;;;;;;;;;;;;5.68;57.49;99909.63;5066509;28;19929;-55
2024/01/27 10:54:06;;;;;;;;;;;;;;;5.90;57.78;99895.59;5071136;28;20271;-57
2024/01/27 10:56:54;;;;;;;;;;;;;;;6.25;56.57;99893.78;5068608;28;19983;-57
2024/01/27 10:59:42;;;;;;;;;;;;;;;6.38;56.13;99890.00;5076714;28;20312;-57
2024/01/27 11:02:33;;;;;;;;;;;;;;;6.45;55.16;99879.94;5069715;28;19928;-57
2024/01/27 11:05:21;;;;;;;;;;;;;;;6.52;55.88;99888.72;5066387;28;19931;-57
2024/01/27 11:08:10;;;;;;;;;;;;;;;6.63;55.15;99891.66;5059907;28;19931;-58
2024/01/27 11:10:58;;;;;;;;;;;;;;;6.67;55.20;99896.34;5067787;28;19932;-57
2024/01/27 11:13:48;;;;;;;;;;;;;;;6.66;54.37;99886.59;5067349;28;20012;-57
2024/01/27 11:16:38;;;;;;;;;;;;;;;6.68;55.05;99889.88;5060676;28;20371;-57
2024/01/27 11:19:27;;;;;;;;;;;;;;;6.72;54.66;99890.25;5071955;28;19931;-57
2024/01/27 11:22:24;;;;;;;;;;;;;;;6.77;54.40;99888.47;5075846;28;20012;-57
2024/01/27 11:25:26;;;;;;;;;;;;;;;6.76;54.39;99889.50;5066782;28;19978;-57
2024/01/27 11:28:14;;;;;;;;;;;;;;;6.75;54.32;99887.88;5066339;28;20025;-56
2024/01/27 11:31:04;;;;;;;;;;;;;;;6.60;53.74;99879.44;5069430;28;19930;-57
2024/01/27 11:33:53;;;;;;;;;;;;;;;6.62;55.01;99885.44;5064354;28;19925;-56
2024/01/27 11:36:42;;;;;;;;;;;;;;;6.68;54.91;99887.19;5060913;28;19924;-57
2024/01/27 11:39:30;;;;;;;;;;;;;;;6.73;54.16;99883.78;5078065;28;19924;-62
2024/01/27 11:42:20;;;;;;;;;;;;;;;6.82;54.73;99883.16;5070813;28;19924;-57
2024/01/27 11:45:08;;;;;;;;;;;;;;;6.85;53.62;99881.84;5085021;28;19928;-57
2024/01/27 11:47:57;;;;;;;;;;;;;;;6.86;53.97;99879.97;5068112;28;19959;-58
2024/01/27 11:50:45;;;;;;;;;;;;;;;6.77;52.72;99880.38;5074795;28;20309;-56
2024/01/27 11:53:33;;;;;;;;;;;;;;;6.85;52.31;99887.25;5066244;28;20424;-56
2024/01/27 11:56:21;;;;;;;;;;;;;;;6.79;53.21;99882.81;5071085;28;19932;-56
2024/01/27 11:59:12;;;;;;;;;;;;;;;6.89;52.73;99871.41;5068558;28;19931;-57
2024/01/27 12:02:00;;;;;;;;;;;;;;;6.98;52.38;99880.78;5069762;28;19925;-56
2024/01/27 12:04:48;;;;;;;;;;;;;;;7.11;52.71;99869.69;5062828;28;20253;-57
2024/01/27 12:07:36;;;;;;;;;;;;;;;7.14;52.05;99868.38;5064141;28;19938;-57
2024/01/27 12:10:25;;;;;;;;;;;;;;;7.19;52.53;99861.22;5063513;28;19932;-57
2024/01/27 12:13:13;;;;;;;;;;;;;;;7.29;52.54;99857.84;5059416;28;19932;-57
2024/01/27 12:16:03;;;;;;;;;;;;;;;7.41;52.52;99861.34;5046511;28;19946;-57
2024/01/27 12:18:52;;;;;;;;;;;;;;;7.43;52.23;99858.38;5063489;28;19932;-56
2024/01/27 12:21:47;;;;;;;;;;;;;;;7.50;51.53;99857.16;5067196;28;19925;-57
2024/01/27 12:24:35;;;;;;;;;;;;;;;7.43;50.51;99858.38;5068245;28;19974;-57
2024/01/27 12:27:23;;;;;;;;;;;;;;;7.41;50.42;99871.34;5069508;28;20412;-56
2024/01/27 12:30:13;;;;;;;;;;;;;;;7.35;49.60;99865.84;5073708;28;20500;-57
2024/01/27 12:33:02;;;;;;;;;;;;;;;7.32;49.23;99877.13;5059044;28;20374;-57
2024/01/27 12:35:50;;;;;;;;;;;;;;;7.30;47.88;99873.84;5065294;28;19924;-56
2024/01/27 12:38:39;;;;;;;;;;;;;;;7.25;49.65;99881.03;5064388;28;19932;-58
2024/01/27 12:41:28;;;;;;;;;;;;;;;7.28;49.35;99872.44;5073903;28;19925;-59
2024/01/27 12:44:16;;;;;;;;;;;;;;;7.27;49.26;99874.31;5070733;28;19929;-57
2024/01/27 12:47:04;;;;;;;;;;;;;;;7.29;48.97;99864.06;5079474;28;19924;-57
2024/01/27 12:49:54;;;;;;;;;;;;;;;7.32;49.16;99865.50;5079376;28;19967;-57
2024/01/27 12:52:43;;;;;;;;;;;;;;;7.32;49.16;99860.91;5076472;28;20402;-57
2024/01/27 12:55:31;;;;;;;;;;;;;;;7.30;49.70;99857.63;5063047;28;19932;-56
2024/01/27 12:58:19;;;;;;;;;;;;;;;7.29;50.00;99858.66;5068694;28;20011;-56
2024/01/27 13:01:07;;;;;;;;;;;;;;;7.40;49.54;99856.16;5069123;28;19932;-57
2024/01/27 13:03:55;;;;;;;;;;;;;;;7.43;49.48;99853.78;5063602;28;20337;-58
2024/01/27 13:06:45;;;;;;;;;;;;;;;7.40;49.57;99856.16;5064807;28;19970;-58
2024/01/27 13:09:33;;;;;;;;;;;;;;;7.46;50.43;99860.63;5056467;28;19932;-57
2024/01/27 13:12:21;;;;;;;;;;;;;;;7.55;49.55;99869.94;5076810;28;19924;-57
2024/01/27 13:15:09;;;;;;;;;;;;;;;7.62;49.16;99870.63;5073961;28;19924;-58
2024/01/27 13:17:57;;;;;;;;;;;;;;;7.53;47.99;99867.50;5072316;28;19937;-57
2024/01/27 13:20:45;;;;;;;;;;;;;;;7.39;48.37;99868.03;5069491;28;20412;-57
2024/01/27 13:23:35;;;;;;;;;;;;;;;7.48;48.41;99870.09;5063351;28;19932;-57
2024/01/27 13:26:28;;;;;;;;;;;;;;;7.50;48.41;99856.34;5061041;28;19936;-57
2024/01/27 13:29:16;;;;;;;;;;;;;;;7.50;49.00;99867.16;5068960;28;19932;-57
2024/01/27 13:32:04;;;;;;;;;;;;;;;7.50;49.08;99869.84;5076571;28;19967;-57
2024/01/27 13:34:52;;;;;;;;;;;;;;;7.51;49.42;99868.78;5063991;28;20328;-58
2024/01/27 13:37:40;;;;;;;;;;;;;;;7.51;48.98;99863.38;5067338;28;19924;-57
2024/01/27 13:40:30;;;;;;;;;;;;;;;7.45;48.38;99864.34;5079569;28;20008;-58
2024/01/27 13:43:18;;;;;;;;;;;;;;;7.42;48.46;99859.44;5068896;28;19924;-57
2024/01/27 13:46:06;;;;;;;;;;;;;;;7.43;48.84;99858.38;5062290;28;20306;-57
2024/01/27 13:48:54;;;;;;;;;;;;;;;7.25;48.46;99864.81;5060314;28;20066;-57
2024/01/27 13:51:42;;;;;;;;;;;;;;;7.32;49.72;99852.78;5069931;28;19931;-58
2024/01/27 13:54:31;;;;;;;;;;;;;;;7.35;49.99;99844.19;5073550;28;19924;-58
2024/01/27 13:57:20;;;;;;;;;;;;;;;7.45;49.70;99837.31;5064622;28;19941;-59
2024/01/27 14:00:09;;;;;;;;;;;;;;;7.50;50.41;99832.81;5063191;28;19925;-57
2024/01/27 14:02:59;;;;;;;;;;;;;;;7.40;50.41;99832.63;5069317;28;20002;-57
2024/01/27 14:05:48;;;;;;;;;;;;;;;7.39;49.76;99816.66;5069029;28;19936;-58
2024/01/27 14:08:36;;;;;;;;;;;;;;;7.44;49.99;99816.75;5068572;28;19928;-57
2024/01/27 14:11:23;;;;;;;;;;;;;;;7.49;50.23;99819.53;5045872;28;19935;-58
2024/01/27 14:14:14;;;;;;;;;;;;;;;7.54;49.89;99814.22;5063456;28;20348;-57
2024/01/27 14:16:44;;;;;;;;;;;;;;;7.55;49.61;99811.25;5072171;28;19931;-57
2024/01/27 14:19:11;;;;;;;;;;;;;;;7.56;49.38;99812.94;5075490;28;19940;-57
2024/01/27 14:21:39;;;;;;;;;;;;;;;7.60;48.82;99813.25;5067656;28;19932;-57
2024/01/27 14:24:07;;;;;;;;;;;;;;;7.63;48.92;99818.16;5065392;28;19974;-57
2024/01/27 14:26:37;;;;;;;;;;;;;;;7.68;48.55;99818.25;5084452;28;19928;-57
2024/01/27 14:29:05;;;;;;;;;;;;;;;7.66;49.11;99828.47;5072500;28;20019;-57
2024/01/27 14:31:34;;;;;;;;;;;;;;;7.72;48.72;99822.09;5071809;28;19924;-57
2024/01/27 14:34:02;;;;;;;;;;;;;;;7.80;48.69;99820.88;5075449;28;19935;-57
2024/01/27 14:36:30;;;;;;;;;;;;;;;7.73;48.81;99823.75;5057242;28;19975;-57
2024/01/27 14:38:58;;;;;;;;;;;;;;;7.76;48.38;99827.84;5071288;28;20398;-57
2024/01/27 14:41:26;;;;;;;;;;;;;;;7.76;48.57;99815.13;5067420;28;19925;-57
2024/01/27 14:43:54;;;;;;;;;;;;;;;7.81;48.12;99826.03;5082253;28;19977;-57
2024/01/27 14:46:22;;;;;;;;;;;;;;;7.74;48.69;99819.97;5089856;28;20318;-58